Time;durP1;ratioP1;P1;durP2;ratioP2;P2;SDS_P1;SDS_P2;PMS_P1;PMS_P2;Temp;Humidity;BMP_temperature;BMP_pressure;BME280_temperature;BME280_humidity;BME280_pressure;Samples;Min_cycle;Max_cycle;Signal;HPM_P1;HPM_P2
2023/03/03 00:00:55;;;;;;;38.37;22.27;;;6.40;97.40;;;;;;5070841;28;20436;-72
2023/03/03 00:03:26;;;;;;;42.90;25.63;;;6.40;97.40;;;;;;5062123;28;20786;-72
2023/03/03 00:05:52;;;;;;;45.57;24.93;;;6.40;97.40;;;;;;5039023;28;20431;-71
2023/03/03 00:08:20;;;;;;;47.85;26.05;;;6.40;97.40;;;;;;5069953;28;20445;-72
2023/03/03 00:10:46;;;;;;;47.47;25.50;;;6.40;97.50;;;;;;5070212;28;20169;-72
2023/03/03 00:13:17;;;;;;;41.93;24.37;;;6.40;97.50;;;;;;5053367;28;20185;-72
2023/03/03 00:15:43;;;;;;;55.20;27.57;;;6.30;97.50;;;;;;5071391;28;20782;-72
2023/03/03 00:18:29;;;;;;;38.95;22.48;;;6.30;97.50;;;;;;5071882;28;20800;-72
2023/03/03 00:20:59;;;;;;;47.60;25.75;;;6.30;97.50;;;;;;5033876;28;20217;-72
2023/03/03 00:23:30;;;;;;;46.58;24.67;;;6.30;97.60;;;;;;5059825;28;20185;-72
2023/03/03 00:26:02;;;;;;;41.10;24.30;;;6.30;97.60;;;;;;5050581;28;20161;-72
2023/03/03 00:28:30;;;;;;;41.58;24.40;;;6.30;97.60;;;;;;5043704;28;20628;-72
2023/03/03 00:30:59;;;;;;;47.53;26.40;;;6.30;97.70;;;;;;5070433;28;20162;-72
2023/03/03 00:33:32;;;;;;;46.08;24.35;;;6.30;97.70;;;;;;5069375;28;20188;-72
2023/03/03 00:36:27;;;;;;;47.10;24.48;;;6.30;97.70;;;;;;5070532;28;20184;-72
2023/03/03 00:38:55;;;;;;;42.45;24.88;;;6.30;97.70;;;;;;5057565;28;20686;-72
2023/03/03 00:41:26;;;;;;;45.97;25.00;;;6.30;98.00;;;;;;5033837;28;20182;-72
2023/03/03 00:43:54;;;;;;;47.28;24.23;;;6.30;97.70;;;;;;5058657;28;20205;-72
2023/03/03 00:46:22;;;;;;;46.17;25.30;;;6.30;97.70;;;;;;5037673;28;20188;-72
2023/03/03 00:48:51;;;;;;;44.17;24.40;;;6.30;97.70;;;;;;5036286;28;20745;-72
2023/03/03 00:51:30;;;;;;;46.50;25.30;;;6.30;97.80;;;;;;5052943;28;20898;-72
2023/03/03 00:53:57;;;;;;;52.38;26.42;;;6.20;97.70;;;;;;5066617;28;20271;-71
2023/03/03 00:56:24;;;;;;;45.03;25.95;;;6.20;97.80;;;;;;5069576;28;20761;-72
2023/03/03 00:58:50;;;;;;;49.53;27.10;;;6.20;97.70;;;;;;5033374;28;20598;-72
2023/03/03 01:01:21;;;;;;;51.77;28.17;;;6.20;97.80;;;;;;5033676;28;20473;-71
2023/03/03 01:03:53;;;;;;;44.75;26.00;;;6.20;97.80;;;;;;5050892;28;20817;-72
2023/03/03 01:06:21;;;;;;;54.07;27.07;;;6.20;97.80;;;;;;5053117;28;20263;-72
2023/03/03 01:08:47;;;;;;;48.65;27.58;;;6.20;97.80;;;;;;5069968;28;20474;-72
2023/03/03 01:11:20;;;;;;;50.47;27.57;;;6.20;97.90;;;;;;5069789;28;20188;-72
2023/03/03 01:13:51;;;;;;;54.30;27.67;;;6.20;97.90;;;;;;5053031;28;20517;-72
2023/03/03 01:16:18;;;;;;;48.15;25.65;;;6.20;97.90;;;;;;5070866;28;20426;-72
2023/03/03 01:18:45;;;;;;;47.70;25.73;;;6.20;97.90;;;;;;5071907;28;20201;-71
2023/03/03 01:21:11;;;;;;;47.20;24.60;;;6.20;97.90;;;;;;5073539;28;20181;-71
2023/03/03 01:23:39;;;;;;;51.85;28.23;;;6.20;97.90;;;;;;5057051;28;20176;-72
2023/03/03 01:26:05;;;;;;;52.60;27.40;;;6.20;97.90;;;;;;5072139;28;20196;-71
2023/03/03 01:28:32;;;;;;;51.85;26.65;;;6.20;97.90;;;;;;5056985;28;20258;-72
2023/03/03 01:31:04;;;;;;;57.90;28.45;;;6.10;97.90;;;;;;5058888;28;20616;-71
2023/03/03 01:33:32;;;;;;;51.03;27.63;;;6.10;98.00;;;;;;5063734;28;20188;-71
2023/03/03 01:36:01;;;;;;;46.78;24.63;;;6.10;98.00;;;;;;5048909;28;20178;-71
2023/03/03 01:38:27;;;;;;;54.38;26.92;;;6.10;98.00;;;;;;5054385;28;20194;-71
2023/03/03 01:40:58;;;;;;;50.92;26.45;;;6.10;98.00;;;;;;5043512;28;20639;-72
2023/03/03 01:43:29;;;;;;;53.97;26.37;;;6.10;98.00;;;;;;5054427;28;20626;-71
2023/03/03 01:45:57;;;;;;;49.58;24.52;;;6.10;98.00;;;;;;5054358;28;20431;-71
2023/03/03 01:48:32;;;;;;;52.13;27.30;;;6.10;98.10;;;;;;5036289;28;20255;-72
2023/03/03 01:51:27;;;;;;;53.28;25.75;;;6.10;98.10;;;;;;5073909;28;20404;-72
2023/03/03 01:53:59;;;;;;;46.97;24.15;;;6.10;98.10;;;;;;5056150;28;20641;-71
2023/03/03 01:56:29;;;;;;;47.70;25.08;;;6.10;98.10;;;;;;5074269;28;20242;-71
2023/03/03 01:59:06;;;;;;;48.40;27.13;;;6.10;98.10;;;;;;5072514;28;20266;-72
2023/03/03 02:01:32;;;;;;;50.83;26.30;;;6.10;98.20;;;;;;5073025;28;20430;-70
2023/03/03 02:04:02;;;;;;;48.03;24.83;;;6.10;98.20;;;;;;5059672;28;20214;-71
2023/03/03 02:06:37;;;;;;;49.67;24.95;;;6.10;98.20;;;;;;5072901;28;20221;-71
2023/03/03 02:09:15;;;;;;;44.78;25.17;;;6.10;98.20;;;;;;5073060;28;20212;-71
2023/03/03 02:11:45;;;;;;;51.17;24.88;;;6.10;98.20;;;;;;5072404;28;20190;-72
2023/03/03 02:14:17;;;;;;;47.65;23.63;;;6.00;98.10;;;;;;5056468;28;20614;-72
2023/03/03 02:16:43;;;;;;;46.27;24.40;;;6.00;98.10;;;;;;5073084;28;20663;-71
2023/03/03 02:19:23;;;;;;;41.78;22.27;;;6.00;98.20;;;;;;5072117;28;20489;-72
2023/03/03 02:21:49;;;;;;;49.15;23.58;;;6.00;98.20;;;;;;5073925;28;20193;-71
2023/03/03 02:24:24;;;;;;;44.20;22.98;;;6.00;98.20;;;;;;5067725;28;20186;-72
2023/03/03 02:26:50;;;;;;;46.07;24.57;;;6.00;98.30;;;;;;5055733;28;20177;-72
2023/03/03 02:29:16;;;;;;;48.40;23.13;;;6.00;98.30;;;;;;5072232;28;20502;-72
2023/03/03 02:31:43;;;;;;;42.97;23.77;;;6.00;98.30;;;;;;5055558;28;20216;-71
2023/03/03 02:34:11;;;;;;;44.70;22.38;;;6.00;98.30;;;;;;5052108;28;20444;-72
2023/03/03 02:36:42;;;;;;;43.08;23.48;;;6.00;98.30;;;;;;5035720;28;20679;-71
2023/03/03 02:39:21;;;;;;;37.92;21.40;;;6.00;98.30;;;;;;5038401;28;20267;-72
2023/03/03 02:42:12;;;;;;;47.93;22.20;;;6.00;98.40;;;;;;5055829;28;20205;-71
2023/03/03 02:44:44;;;;;;;37.45;20.65;;;6.00;98.40;;;;;;5043599;28;20481;-71
2023/03/03 02:47:10;;;;;;;41.90;22.80;;;6.00;98.30;;;;;;5053494;28;20166;-71
2023/03/03 02:49:37;;;;;;;42.95;22.20;;;6.00;98.40;;;;;;5070834;28;20627;-71
2023/03/03 02:52:08;;;;;;;39.08;21.50;;;6.00;98.40;;;;;;5055702;28;20241;-71
2023/03/03 02:54:36;;;;;;;38.65;20.70;;;6.00;98.40;;;;;;5071440;28;20204;-71
2023/03/03 02:57:04;;;;;;;42.55;21.73;;;6.00;98.40;;;;;;5055340;28;20159;-71
2023/03/03 02:59:34;;;;;;;41.43;21.57;;;6.00;98.40;;;;;;5037407;28;20190;-71
2023/03/03 03:02:08;;;;;;;37.13;20.33;;;6.00;98.40;;;;;;5036540;28;20452;-71
2023/03/03 03:04:36;;;;;;;40.33;21.83;;;5.90;98.40;;;;;;5070515;28;20181;-72
2023/03/03 03:07:04;;;;;;;43.92;22.75;;;5.90;98.40;;;;;;5067438;28;20451;-71
2023/03/03 03:09:31;;;;;;;43.83;22.67;;;5.90;98.40;;;;;;5059382;28;20256;-71
2023/03/03 03:12:01;;;;;;;41.17;21.95;;;5.90;98.50;;;;;;5053927;28;20550;-71
2023/03/03 03:14:28;;;;;;;35.42;21.42;;;5.90;98.50;;;;;;5054291;28;20642;-71
2023/03/03 03:17:22;;;;;;;41.95;21.02;;;5.90;98.50;;;;;;5058251;28;20185;-71
2023/03/03 03:19:52;;;;;;;38.13;20.95;;;5.90;98.50;;;;;;5036864;28;20204;-71
2023/03/03 03:22:19;;;;;;;41.20;22.08;;;5.90;98.50;;;;;;5070934;28;20181;-71
2023/03/03 03:24:47;;;;;;;46.40;22.95;;;5.90;98.50;;;;;;5063943;28;20606;-72
2023/03/03 03:27:18;;;;;;;42.20;22.73;;;5.90;98.50;;;;;;5035157;28;20189;-72
2023/03/03 03:29:47;;;;;;;40.10;21.13;;;5.90;98.90;;;;;;5070137;28;20477;-71
2023/03/03 03:32:13;;;;;;;45.43;22.20;;;5.90;98.90;;;;;;5070752;28;20546;-71
2023/03/03 03:34:42;;;;;;;40.78;21.33;;;5.90;98.60;;;;;;5071360;28;20447;-71
2023/03/03 03:37:13;;;;;;;42.10;22.15;;;5.90;98.60;;;;;;5046147;28;20264;-71
2023/03/03 03:39:46;;;;;;;42.95;22.17;;;5.90;98.60;;;;;;5055124;28;20184;-69
2023/03/03 03:42:12;;;;;;;44.53;22.67;;;5.90;98.60;;;;;;5050825;28;20751;-69
2023/03/03 03:44:39;;;;;;;43.55;22.38;;;5.90;98.50;;;;;;5053953;28;20419;-69
2023/03/03 03:47:10;;;;;;;34.00;20.73;;;5.90;98.60;;;;;;5055488;28;20616;-69
2023/03/03 03:49:41;;;;;;;41.70;22.63;;;5.90;98.60;;;;;;5073130;28;20280;-69
2023/03/03 03:52:10;;;;;;;39.85;21.35;;;5.90;98.60;;;;;;5055413;28;20200;-69
2023/03/03 03:54:36;;;;;;;39.13;21.70;;;5.80;98.90;;;;;;5071853;28;20550;-69
2023/03/03 03:57:04;;;;;;;35.95;20.77;;;5.90;98.60;;;;;;5055077;28;20267;-69
2023/03/03 03:59:32;;;;;;;36.35;19.63;;;5.90;98.60;;;;;;5046821;28;20196;-69
2023/03/03 04:01:59;;;;;;;38.83;20.52;;;5.80;98.60;;;;;;5042931;28;20204;-70
2023/03/03 04:04:28;;;;;;;38.05;21.00;;;5.80;98.60;;;;;;5051520;28;20218;-69
2023/03/03 04:06:56;;;;;;;39.30;21.42;;;5.80;98.60;;;;;;5056687;28;20183;-70
2023/03/03 04:09:24;;;;;;;44.40;22.87;;;5.80;98.60;;;;;;5054163;28;20301;-69
2023/03/03 04:11:50;;;;;;;39.30;21.45;;;5.80;98.60;;;;;;5051323;28;20463;-69
2023/03/03 04:14:19;;;;;;;40.80;21.10;;;5.80;98.60;;;;;;5068336;28;20178;-69
2023/03/03 04:16:47;;;;;;;40.40;22.70;;;5.90;98.60;;;;;;5068116;28;20655;-69
2023/03/03 04:19:15;;;;;;;39.13;22.08;;;5.80;98.50;;;;;;5050701;28;20220;-69
2023/03/03 04:21:47;;;;;;;37.85;20.38;;;5.80;98.60;;;;;;5041214;28;20507;-69
2023/03/03 04:24:18;;;;;;;38.03;20.60;;;5.80;98.60;;;;;;5035456;28;20186;-69
2023/03/03 04:26:47;;;;;;;35.80;19.05;;;5.80;98.60;;;;;;5070136;28;20215;-69
2023/03/03 04:29:18;;;;;;;45.90;21.02;;;5.80;98.70;;;;;;5071087;28;20287;-69
2023/03/03 04:31:49;;;;;;;40.83;21.15;;;5.80;98.70;;;;;;5061668;28;20193;-69
2023/03/03 04:34:16;;;;;;;38.57;21.43;;;5.80;98.70;;;;;;5051300;28;20225;-69
2023/03/03 04:36:44;;;;;;;42.00;21.25;;;5.80;98.70;;;;;;5051147;28;20441;-69
2023/03/03 04:39:11;;;;;;;36.45;19.58;;;5.80;98.70;;;;;;5034614;28;20214;-69
2023/03/03 04:41:39;;;;;;;39.33;21.35;;;5.80;98.70;;;;;;5059389;28;20189;-69
2023/03/03 04:44:05;;;;;;;38.73;19.60;;;5.80;98.70;;;;;;5054645;28;20176;-69
2023/03/03 04:46:33;;;;;;;38.10;21.20;;;5.80;98.70;;;;;;5072598;28;20454;-70
2023/03/03 04:49:00;;;;;;;39.67;21.80;;;5.80;98.70;;;;;;5036760;28;20200;-70
2023/03/03 04:51:27;;;;;;;37.13;20.67;;;5.80;98.70;;;;;;5051822;28;20571;-69
2023/03/03 04:53:55;;;;;;;36.45;19.23;;;5.70;98.70;;;;;;5053718;28;20580;-69
2023/03/03 04:56:21;;;;;;;39.30;20.88;;;5.80;98.80;;;;;;5075167;28;20706;-70
2023/03/03 04:58:48;;;;;;;37.33;19.63;;;5.70;98.70;;;;;;5058461;28;20200;-69
2023/03/03 05:01:14;;;;;;;37.93;20.10;;;5.80;98.80;;;;;;5053786;28;20442;-69
2023/03/03 05:03:44;;;;;;;32.63;19.67;;;5.70;98.70;;;;;;5038235;28;20398;-69
2023/03/03 05:06:21;;;;;;;36.67;19.63;;;5.70;98.70;;;;;;5063608;28;20489;-69
2023/03/03 05:08:47;;;;;;;36.93;19.80;;;5.70;98.70;;;;;;5074768;28;20272;-69
2023/03/03 05:11:16;;;;;;;37.97;18.80;;;5.70;98.70;;;;;;5063545;28;20453;-69
2023/03/03 05:13:42;;;;;;;34.95;17.92;;;5.70;98.70;;;;;;5075143;28;20173;-69
2023/03/03 05:16:08;;;;;;;36.15;19.20;;;5.70;98.70;;;;;;5072733;28;20548;-68
2023/03/03 05:18:37;;;;;;;32.90;17.75;;;5.70;98.70;;;;;;5054382;28;20254;-69
2023/03/03 05:21:03;;;;;;;35.88;17.98;;;5.70;98.70;;;;;;5054670;28;20174;-69
2023/03/03 05:23:30;;;;;;;41.60;22.50;;;5.70;98.70;;;;;;5055972;28;20162;-69
2023/03/03 05:25:59;;;;;;;35.42;18.77;;;5.70;98.70;;;;;;5066302;28;20279;-70
2023/03/03 05:28:24;;;;;;;31.98;18.10;;;5.70;98.70;;;;;;5068786;28;20236;-69
2023/03/03 05:30:53;;;;;;;34.78;19.63;;;5.70;98.70;;;;;;5067365;28;20249;-69
2023/03/03 05:33:19;;;;;;;33.28;17.98;;;5.70;98.70;;;;;;5037837;28;20193;-69
2023/03/03 05:35:45;;;;;;;38.08;19.63;;;5.70;98.70;;;;;;5059771;28;20173;-69
2023/03/03 05:38:11;;;;;;;31.53;17.93;;;5.70;98.70;;;;;;5054673;28;20610;-69
2023/03/03 05:40:37;;;;;;;34.00;17.85;;;5.70;98.80;;;;;;5055758;28;20403;-72
2023/03/03 05:43:03;;;;;;;34.38;17.45;;;5.70;98.80;;;;;;5056142;28;20169;-71
2023/03/03 05:45:29;;;;;;;33.33;18.20;;;5.70;98.70;;;;;;5055854;28;20249;-71
2023/03/03 05:47:57;;;;;;;33.85;18.48;;;5.70;98.70;;;;;;5054565;28;20655;-71
2023/03/03 05:50:24;;;;;;;31.83;18.30;;;5.70;98.70;;;;;;5054695;28;20404;-71
2023/03/03 05:52:51;;;;;;;33.58;18.90;;;5.70;98.70;;;;;;5038082;28;20185;-71
2023/03/03 05:55:18;;;;;;;33.78;18.50;;;5.70;98.70;;;;;;5038039;28;20303;-71
2023/03/03 05:57:46;;;;;;;31.60;16.90;;;5.70;98.80;;;;;;5055539;28;20271;-74
2023/03/03 06:00:13;;;;;;;29.50;16.47;;;5.70;98.80;;;;;;5040849;28;20279;-71
2023/03/03 06:02:42;;;;;;;34.13;17.85;;;5.70;98.80;;;;;;5054156;28;20940;-74
2023/03/03 06:05:09;;;;;;;31.77;17.00;;;5.70;98.80;;;;;;5054265;28;20530;-74
2023/03/03 06:07:35;;;;;;;32.90;17.85;;;5.70;98.80;;;;;;5054296;28;20680;-74
2023/03/03 06:10:09;;;;;;;29.90;16.85;;;5.60;98.70;;;;;;5072944;28;20200;-71
2023/03/03 06:12:40;;;;;;;30.67;17.60;;;5.60;98.70;;;;;;5071228;28;20617;-71
2023/03/03 06:15:07;;;;;;;29.90;17.33;;;5.60;98.70;;;;;;5055350;28;20173;-71
2023/03/03 06:17:39;;;;;;;29.80;16.48;;;5.60;98.70;;;;;;5054336;28;20197;-71
2023/03/03 06:20:06;;;;;;;32.80;16.52;;;5.60;98.70;;;;;;5053889;28;20232;-71
2023/03/03 06:22:32;;;;;;;32.92;16.85;;;5.60;98.70;;;;;;5055151;28;20193;-70
2023/03/03 06:25:00;;;;;;;31.90;16.30;;;5.60;98.70;;;;;;5069961;28;20189;-71
2023/03/03 06:27:26;;;;;;;40.10;18.05;;;5.60;98.70;;;;;;5036550;28;20539;-71
2023/03/03 06:29:55;;;;;;;32.00;15.67;;;5.60;98.70;;;;;;5061905;28;20283;-70
2023/03/03 06:32:21;;;;;;;34.55;17.63;;;5.60;98.70;;;;;;5061638;28;20455;-73
2023/03/03 06:34:49;;;;;;;30.58;16.00;;;5.60;98.80;;;;;;5051557;28;20187;-71
2023/03/03 06:37:17;;;;;;;29.67;16.57;;;5.60;98.80;;;;;;5075318;28;20502;-72
2023/03/03 06:39:44;;;;;;;28.83;15.48;;;5.60;98.80;;;;;;5057558;28;20458;-75
2023/03/03 06:42:13;;;;;;;31.05;16.52;;;5.60;98.80;;;;;;5054655;28;20169;-72
2023/03/03 06:44:39;;;;;;;29.35;15.88;;;5.60;98.80;;;;;;5054861;28;20199;-73
2023/03/03 06:47:05;;;;;;;29.35;17.02;;;5.60;98.80;;;;;;5053263;28;20210;-76
2023/03/03 06:49:33;;;;;;;28.23;15.70;;;5.60;98.70;;;;;;5036787;28;20593;-73
2023/03/03 06:52:01;;;;;;;26.88;16.42;;;5.60;98.70;;;;;;5060448;28;20211;-74
2023/03/03 06:54:28;;;;;;;31.80;17.00;;;5.60;98.70;;;;;;5062212;28;20177;-71
2023/03/03 06:56:59;;;;;;;29.45;16.27;;;5.60;98.80;;;;;;5054682;28;20202;-70
2023/03/03 06:59:26;;;;;;;29.85;16.25;;;5.60;98.70;;;;;;5065759;28;20751;-70
2023/03/03 07:01:55;;;;;;;33.70;16.73;;;5.60;98.70;;;;;;5056365;28;20191;-70
2023/03/03 07:04:27;;;;;;;28.60;16.20;;;5.60;98.70;;;;;;5053300;28;20212;-70
2023/03/03 07:06:59;;;;;;;28.92;14.98;;;5.60;98.80;;;;;;5066842;28;20581;-70
2023/03/03 07:09:28;;;;;;;30.02;16.30;;;5.60;98.80;;;;;;5061379;28;20211;-70
2023/03/03 07:12:14;;;;;;;31.02;16.33;;;5.60;98.80;;;;;;5061260;28;20765;-70
2023/03/03 07:14:46;;;;;;;28.10;16.13;;;5.60;98.80;;;;;;5063114;28;20203;-70
2023/03/03 07:17:17;;;;;;;28.85;15.77;;;5.60;98.80;;;;;;5042381;28;20247;-70
2023/03/03 07:19:47;;;;;;;28.77;15.00;;;5.60;98.80;;;;;;5068571;28;20193;-70
2023/03/03 07:22:15;;;;;;;32.03;16.30;;;5.60;98.80;;;;;;5035749;28;20204;-70
2023/03/03 07:24:44;;;;;;;30.63;16.52;;;5.60;98.80;;;;;;5048553;28;20208;-69
2023/03/03 07:27:11;;;;;;;33.38;16.05;;;5.60;98.80;;;;;;5066295;28;20173;-70
2023/03/03 07:29:40;;;;;;;30.27;16.33;;;5.60;98.80;;;;;;5059411;28;20196;-70
2023/03/03 07:32:35;;;;;;;27.85;16.48;;;5.60;98.80;;;;;;5064118;28;20184;-70
2023/03/03 07:35:25;;;;;;;33.50;16.75;;;5.60;98.80;;;;;;5061730;28;20191;-70
2023/03/03 07:37:53;;;;;;;35.20;17.08;;;5.60;98.80;;;;;;5061866;28;20205;-70
2023/03/03 07:40:35;;;;;;;28.47;15.83;;;5.60;98.80;;;;;;5056014;28;20326;-71
2023/03/03 07:43:28;;;;;;;36.30;16.50;;;5.60;98.80;;;;;;5059084;28;20423;-73
2023/03/03 07:46:05;;;;;;;27.42;14.85;;;5.60;98.90;;;;;;5058641;28;20200;-72
2023/03/03 07:48:35;;;;;;;28.75;15.43;;;5.50;98.90;;;;;;5060481;28;20698;-72
2023/03/03 07:51:14;;;;;;;28.08;15.35;;;5.50;98.90;;;;;;5051840;28;20301;-72
2023/03/03 07:53:40;;;;;;;32.72;15.95;;;5.50;98.90;;;;;;5067491;28;20200;-72
2023/03/03 07:56:29;;;;;;;29.77;17.10;;;5.50;98.90;;;;;;5057055;28;20239;-72
2023/03/03 07:58:56;;;;;;;30.50;15.45;;;5.50;98.90;;;;;;5050887;28;20459;-72
2023/03/03 08:01:44;;;;;;;30.48;16.15;;;5.50;98.90;;;;;;5057717;28;20217;-72
2023/03/03 08:04:18;;;;;;;30.60;16.70;;;5.50;98.90;;;;;;5060660;28;20615;-72
2023/03/03 08:06:53;;;;;;;32.40;16.33;;;5.50;98.90;;;;;;5059662;28;20720;-74
2023/03/03 08:09:19;;;;;;;34.28;17.17;;;5.50;98.80;;;;;;5062060;28;20302;-73
2023/03/03 08:12:11;;;;;;;35.33;17.77;;;5.50;98.90;;;;;;5053128;28;20271;-74
2023/03/03 08:14:37;;;;;;;33.35;17.35;;;5.50;98.90;;;;;;5051349;28;20535;-72
2023/03/03 08:17:18;;;;;;;34.88;18.85;;;5.50;98.90;;;;;;5041624;28;20268;-72
2023/03/03 08:19:44;;;;;;;37.28;17.90;;;5.50;98.90;;;;;;5063766;28;20204;-72
2023/03/03 08:22:17;;;;;;;31.83;16.60;;;5.50;98.90;;;;;;5063450;28;20322;-72
2023/03/03 08:24:43;;;;;;;37.42;17.08;;;5.50;98.90;;;;;;5052476;28;20196;-72
2023/03/03 08:27:09;;;;;;;38.05;18.60;;;5.50;98.90;;;;;;5061457;28;20212;-72
2023/03/03 08:29:35;;;;;;;35.63;18.77;;;5.50;98.90;;;;;;5056301;28;20605;-72
2023/03/03 08:32:04;;;;;;;40.63;19.70;;;5.50;99.00;;;;;;5060352;28;20276;-71
2023/03/03 08:34:30;;;;;;;33.72;16.90;;;5.50;98.90;;;;;;5059061;28;20462;-71
2023/03/03 08:36:57;;;;;;;36.42;18.00;;;5.50;98.90;;;;;;5062342;28;20217;-71
2023/03/03 08:39:24;;;;;;;33.42;17.33;;;5.50;98.90;;;;;;5067549;28;20201;-71
2023/03/03 08:41:50;;;;;;;34.50;16.83;;;5.50;98.90;;;;;;5048574;28;20258;-71
2023/03/03 08:44:18;;;;;;;36.03;18.83;;;5.60;98.90;;;;;;5062784;28;20217;-72
2023/03/03 08:46:44;;;;;;;36.60;18.52;;;5.60;98.90;;;;;;5064282;28;20862;-72
2023/03/03 08:49:10;;;;;;;36.60;17.27;;;5.60;98.90;;;;;;5064449;28;20241;-71
2023/03/03 08:51:36;;;;;;;32.28;17.30;;;5.60;98.90;;;;;;5061153;28;20432;-71
2023/03/03 08:54:02;;;;;;;33.45;17.50;;;5.60;98.90;;;;;;5054843;28;20176;-71
2023/03/03 08:56:28;;;;;;;35.45;18.80;;;5.60;98.90;;;;;;5071286;28;20203;-70
2023/03/03 08:58:54;;;;;;;37.03;16.47;;;5.60;98.90;;;;;;5041852;28;20201;-70
2023/03/03 09:01:22;;;;;;;28.97;15.70;;;5.50;98.90;;;;;;5063735;28;21246;-71
2023/03/03 09:03:51;;;;;;;32.90;17.58;;;5.50;98.90;;;;;;5059636;28;21004;-72
2023/03/03 09:06:19;;;;;;;37.00;18.43;;;5.50;98.90;;;;;;5030951;28;20268;-72
2023/03/03 09:08:46;;;;;;;42.30;19.70;;;5.50;98.90;;;;;;5067237;28;20835;-72
2023/03/03 09:11:18;;;;;;;36.15;18.90;;;5.50;98.90;;;;;;5062936;28;20185;-72
2023/03/03 09:13:52;;;;;;;40.28;19.65;;;5.60;98.90;;;;;;5067123;28;20216;-72
2023/03/03 09:16:20;;;;;;;38.17;18.25;;;5.60;99.00;;;;;;5055436;28;20665;-72
2023/03/03 09:18:46;;;;;;;40.78;18.05;;;5.50;98.90;;;;;;5062738;28;20208;-72
2023/03/03 09:21:34;;;;;;;34.90;18.60;;;5.50;98.90;;;;;;5054069;28;20180;-72
2023/03/03 09:24:06;;;;;;;34.13;17.60;;;5.50;98.90;;;;;;5050451;28;20198;-69
2023/03/03 09:26:48;;;;;;;38.90;18.35;;;5.50;98.90;;;;;;5062805;28;20705;-69
2023/03/03 09:29:29;;;;;;;34.53;17.73;;;5.60;98.90;;;;;;5064056;28;20636;-70
2023/03/03 09:32:00;;;;;;;32.85;18.10;;;5.50;98.90;;;;;;5063568;28;20204;-70
2023/03/03 09:34:39;;;;;;;34.13;16.60;;;5.50;98.90;;;;;;5051085;28;20705;-70
2023/03/03 09:37:35;;;;;;;36.95;18.20;;;5.50;98.90;;;;;;5068121;28;20169;-70
2023/03/03 09:40:30;;;;;;;42.33;17.85;;;5.50;98.90;;;;;;5043263;28;20182;-70
2023/03/03 09:43:12;;;;;;;38.70;17.90;;;5.50;98.90;;;;;;5060521;28;20202;-70
2023/03/03 09:45:50;;;;;;;33.40;17.25;;;5.50;98.90;;;;;;5056648;28;20655;-70
2023/03/03 09:48:30;;;;;;;39.03;17.35;;;5.50;98.90;;;;;;5057510;28;20235;-70
2023/03/03 09:51:08;;;;;;;36.88;17.98;;;5.50;98.90;;;;;;5044223;28;20186;-70
2023/03/03 09:53:55;;;;;;;33.95;16.13;;;5.50;98.90;;;;;;5069254;28;20185;-70
2023/03/03 09:56:30;;;;;;;34.25;17.85;;;5.50;99.00;;;;;;5066094;28;20249;-70
2023/03/03 09:59:33;;;;;;;30.65;17.25;;;5.50;99.00;;;;;;5056023;28;20568;-68
2023/03/03 10:02:08;;;;;;;35.13;17.63;;;5.50;99.00;;;;;;5053874;28;20634;-68
2023/03/03 10:04:56;;;;;;;39.58;19.17;;;5.50;99.00;;;;;;5067035;28;20182;-69
2023/03/03 10:07:34;;;;;;;35.30;18.80;;;5.50;99.00;;;;;;5037994;28;20699;-68
2023/03/03 10:10:01;;;;;;;40.08;18.60;;;5.50;99.00;;;;;;5055388;28;20227;-68
2023/03/03 10:13:13;;;;;;;33.80;17.00;;;5.50;99.00;;;;;;5023018;28;20196;-69
2023/03/03 10:16:05;;;;;;;37.92;17.00;;;5.50;99.00;;;;;;5075556;28;20564;-67
2023/03/03 10:18:37;;;;;;;38.55;17.65;;;5.50;99.10;;;;;;5064096;28;20571;-69
2023/03/03 10:21:11;;;;;;;34.80;16.55;;;5.50;99.20;;;;;;5065829;28;20805;-68
2023/03/03 10:23:57;;;;;;;33.42;17.48;;;5.50;99.10;;;;;;5066017;28;20207;-69
2023/03/03 10:26:35;;;;;;;38.20;17.55;;;5.50;99.40;;;;;;5065503;28;20723;-69
2023/03/03 10:29:21;;;;;;;37.88;16.83;;;5.50;99.10;;;;;;5056805;28;20220;-69
2023/03/03 10:31:58;;;;;;;31.75;16.00;;;5.50;99.10;;;;;;5042841;28;20196;-69
2023/03/03 10:34:45;;;;;;;35.33;16.10;;;5.50;99.20;;;;;;5047842;28;20291;-69
2023/03/03 10:37:29;;;;;;;33.85;17.70;;;5.50;99.20;;;;;;5054851;28;20208;-69
2023/03/03 10:40:11;;;;;;;35.67;16.58;;;5.50;99.20;;;;;;5056673;28;20189;-68
2023/03/03 10:43:08;;;;;;;38.72;16.83;;;5.50;99.20;;;;;;5064675;28;20235;-66
2023/03/03 10:45:56;;;;;;;28.40;15.98;;;5.50;99.30;;;;;;5053903;28;20581;-66
2023/03/03 10:48:32;;;;;;;28.80;15.43;;;5.50;99.20;;;;;;5055302;28;20207;-66
2023/03/03 10:51:26;;;;;;;29.13;15.13;;;5.50;99.20;;;;;;5062848;28;20650;-66
2023/03/03 10:54:23;;;;;;;35.35;16.13;;;5.50;99.20;;;;;;5064168;28;20184;-66
2023/03/03 10:57:18;;;;;;;32.70;15.57;;;5.50;99.30;;;;;;5073077;28;20245;-66
2023/03/03 11:00:09;;;;;;;31.85;14.88;;;5.50;99.30;;;;;;5054689;28;20521;-66
2023/03/03 11:02:52;;;;;;;32.30;15.50;;;5.50;99.30;;;;;;5060499;28;20199;-66
2023/03/03 11:05:55;;;;;;;31.77;16.60;;;5.50;99.30;;;;;;5063243;28;20184;-66
2023/03/03 11:08:37;;;;;;;30.63;17.08;;;5.50;99.40;;;;;;5064890;28;20583;-66
2023/03/03 11:11:15;;;;;;;36.10;18.33;;;5.50;99.30;;;;;;5072194;28;20195;-66
2023/03/03 11:13:48;;;;;;;34.88;18.10;;;5.50;99.30;;;;;;5057069;28;20190;-66
2023/03/03 11:16:23;;;;;;;35.95;15.73;;;5.50;99.40;;;;;;5082868;28;20203;-66
2023/03/03 11:19:16;;;;;;;36.65;16.80;;;5.60;99.40;;;;;;5065453;28;20249;-67
2023/03/03 11:21:59;;;;;;;36.92;18.20;;;5.60;99.40;;;;;;5053288;28;20267;-67
2023/03/03 11:24:49;;;;;;;39.10;18.60;;;5.60;99.40;;;;;;5070796;28;20189;-67
2023/03/03 11:27:53;;;;;;;37.53;17.98;;;5.60;99.40;;;;;;5054596;28;20196;-67
2023/03/03 11:30:48;;;;;;;38.65;16.67;;;5.60;99.40;;;;;;5072272;28;20196;-67
2023/03/03 11:33:37;;;;;;;35.22;19.15;;;5.60;99.40;;;;;;5068575;28;20211;-67
2023/03/03 11:36:21;;;;;;;41.55;18.48;;;5.60;99.30;;;;;;5072127;28;20203;-67
2023/03/03 11:38:59;;;;;;;36.70;18.58;;;5.60;99.70;;;;;;5053829;28;20288;-67
2023/03/03 11:41:29;;;;;;;36.25;16.98;;;5.60;99.40;;;;;;5048444;28;20269;-67
2023/03/03 11:44:24;;;;;;;36.15;17.83;;;5.60;99.40;;;;;;5064870;28;20176;-69
2023/03/03 11:50:12;;;;;;;34.60;17.20;;;5.60;99.30;;;;;;5041359;28;20230;-71
2023/03/03 11:52:41;;;;;;;34.88;17.65;;;5.70;99.40;;;;;;5022775;28;20190;-71
2023/03/03 11:55:26;;;;;;;36.38;17.27;;;5.70;99.30;;;;;;5011357;28;20172;-72
2023/03/03 11:58:32;;;;;;;33.10;16.80;;;5.70;99.30;;;;;;4998792;28;20700;-68
2023/03/03 12:01:20;;;;;;;33.33;16.48;;;5.70;99.40;;;;;;5002603;28;20173;-68
2023/03/03 12:04:04;;;;;;;34.90;17.95;;;5.70;99.40;;;;;;5011972;28;20524;-69
2023/03/03 12:07:12;;;;;;;31.90;15.98;;;5.60;99.30;;;;;;5012069;28;20602;-68
2023/03/03 12:09:58;;;;;;;29.92;16.77;;;5.70;99.40;;;;;;5017251;28;20238;-68
2023/03/03 12:12:48;;;;;;;32.28;15.38;;;5.70;99.40;;;;;;5013572;28;20168;-68
2023/03/03 12:15:17;;;;;;;34.65;17.10;;;5.70;99.30;;;;;;4994077;28;20660;-71
2023/03/03 12:17:45;;;;;;;33.33;16.95;;;5.70;99.30;;;;;;5011894;28;20213;-68
2023/03/03 12:20:32;;;;;;;33.25;17.10;;;5.70;99.30;;;;;;5011777;28;20190;-68
2023/03/03 12:23:27;;;;;;;29.67;15.85;;;5.70;99.20;;;;;;5012060;28;20277;-69
2023/03/03 12:26:12;;;;;;;29.80;14.77;;;5.70;99.20;;;;;;4995470;28;20223;-68
2023/03/03 12:28:56;;;;;;;33.60;16.13;;;5.70;99.20;;;;;;5017165;28;20264;-68
2023/03/03 12:31:28;;;;;;;34.43;15.50;;;5.70;99.20;;;;;;5012580;28;20535;-68
2023/03/03 12:34:12;;;;;;;32.38;16.13;;;5.80;99.20;;;;;;5011743;28;20434;-68
2023/03/03 12:37:17;;;;;;;32.53;16.63;;;5.80;99.20;;;;;;5012854;28;20517;-68
2023/03/03 12:39:55;;;;;;;28.98;15.00;;;5.80;99.20;;;;;;4995221;28;20193;-68
2023/03/03 12:42:41;;;;;;;25.63;14.32;;;5.80;99.20;;;;;;5011668;28;20214;-68
2023/03/03 12:45:42;;;;;;;27.92;14.65;;;5.80;99.20;;;;;;5011648;28;20292;-68
2023/03/03 12:48:32;;;;;;;29.42;14.95;;;5.80;99.20;;;;;;5011405;28;20210;-68
2023/03/03 12:51:05;;;;;;;30.20;15.75;;;5.80;99.20;;;;;;4985340;28;20684;-69
2023/03/03 12:54:13;;;;;;;28.58;15.75;;;5.80;99.20;;;;;;5012742;28;20295;-70
2023/03/03 12:56:53;;;;;;;29.05;15.23;;;5.80;99.10;;;;;;4977348;28;20233;-68
2023/03/03 12:59:24;;;;;;;33.38;15.60;;;5.90;99.10;;;;;;5010937;28;20204;-68
2023/03/03 13:02:21;;;;;;;29.35;14.90;;;5.90;99.10;;;;;;5010819;28;20182;-68
2023/03/03 13:05:17;;;;;;;28.13;13.90;;;5.90;99.10;;;;;;5011270;28;20702;-66
2023/03/03 13:07:52;;;;;;;27.35;15.23;;;5.90;99.10;;;;;;5011709;28;20205;-69
2023/03/03 13:10:30;;;;;;;31.27;15.50;;;6.00;99.10;;;;;;5012124;28;20208;-67
2023/03/03 13:13:18;;;;;;;27.65;14.63;;;6.00;99.10;;;;;;5012193;28;20189;-67